createdAt,value
2022-12-16T00:03:14.172Z,99694.72
2022-12-16T00:08:10.828Z,99694.88
2022-12-16T00:13:10.482Z,99689.03
2022-12-16T00:18:07.130Z,99695.69
2022-12-16T00:23:03.548Z,99694.03
2022-12-16T00:28:00.598Z,99693.31
2022-12-16T00:32:57.032Z,99685.75
2022-12-16T00:37:53.401Z,99692.41
2022-12-16T00:42:49.981Z,99692.41
2022-12-16T00:47:46.682Z,99697.50
2022-12-16T00:52:43.041Z,99695.00
2022-12-16T00:57:39.486Z,99688.97
2022-12-16T01:02:35.949Z,99694.03
2022-12-16T01:07:32.441Z,99690.75
2022-12-16T01:12:28.819Z,99702.09
2022-12-16T01:17:28.185Z,99701.13
2022-12-16T01:22:25.384Z,99720.00
2022-12-16T01:27:21.810Z,99719.25
2022-12-16T01:32:19.438Z,99728.00
2022-12-16T01:37:15.821Z,99720.25
2022-12-16T01:42:16.815Z,99729.94
2022-12-16T01:47:16.447Z,99728.91
2022-12-16T01:52:21.115Z,99725.22
2022-12-16T01:57:22.360Z,99739.25
2022-12-16T02:02:20.494Z,99748.09
2022-12-16T02:07:17.038Z,99742.75
2022-12-16T02:12:20.849Z,99737.78
2022-12-16T02:17:24.417Z,99730.03
2022-12-16T02:22:23.364Z,99736.88
2022-12-16T02:27:31.903Z,99738.47
2022-12-16T02:33:07.442Z,99735.00
2022-12-16T02:38:27.387Z,99734.34
2022-12-16T02:43:43.838Z,99736.09
2022-12-16T02:48:40.280Z,99735.41
2022-12-16T02:53:39.297Z,99737.00
2022-12-16T02:58:46.827Z,99738.06
2022-12-16T03:04:12.672Z,99735.56
2022-12-16T03:09:12.768Z,99746.69
2022-12-16T03:14:11.824Z,99742.19
2022-12-16T03:19:11.716Z,99738.81
2022-12-16T03:24:10.703Z,99740.56
2022-12-16T03:29:26.261Z,99745.81
2022-12-16T03:34:37.605Z,99746.81
2022-12-16T03:39:56.533Z,99753.69
2022-12-16T03:44:53.178Z,99743.34
2022-12-16T03:49:49.839Z,99752.69
2022-12-16T03:54:46.196Z,99762.00
2022-12-16T03:59:42.877Z,99764.59
2022-12-16T04:04:39.256Z,99753.50
2022-12-16T04:09:35.629Z,99762.16
2022-12-16T04:14:53.562Z,99765.72
2022-12-16T04:20:09.302Z,99757.25
2022-12-16T04:25:10.713Z,99764.06
2022-12-16T04:30:19.792Z,99776.94
2022-12-16T04:35:34.764Z,99782.19
2022-12-16T04:40:49.988Z,99787.22
2022-12-16T04:46:05.964Z,99787.34
2022-12-16T04:51:31.519Z,99786.31
2022-12-16T04:56:46.723Z,99797.63
2022-12-16T05:02:02.220Z,99798.31
2022-12-16T05:07:17.122Z,99802.72
2022-12-16T05:12:32.017Z,99804.50
2022-12-16T05:17:47.203Z,99804.75
2022-12-16T05:23:02.272Z,99827.91
2022-12-16T05:28:17.561Z,99816.53
2022-12-16T05:33:33.055Z,99830.25
2022-12-16T05:38:48.414Z,99830.22
2022-12-16T05:44:03.273Z,99841.47
2022-12-16T05:49:18.406Z,99839.78
2022-12-16T05:54:33.684Z,99851.00
2022-12-16T05:59:49.136Z,99852.72
2022-12-16T06:05:04.353Z,99858.00
2022-12-16T06:10:19.172Z,99863.03
2022-12-16T06:15:34.195Z,99875.78
2022-12-16T06:20:49.356Z,99879.16
2022-12-16T06:26:04.301Z,99894.88
2022-12-16T06:31:19.098Z,99905.16
2022-12-16T06:36:34.071Z,99909.25
2022-12-16T06:41:48.808Z,99913.44
2022-12-16T06:47:03.608Z,99925.56
2022-12-16T06:52:18.717Z,99927.22
2022-12-16T06:57:33.803Z,99938.41
2022-12-16T07:02:49.078Z,99943.59
2022-12-16T07:08:08.094Z,99956.44
2022-12-16T07:13:23.258Z,99965.00
2022-12-16T07:18:38.524Z,99969.16
2022-12-16T07:23:53.747Z,99975.16
2022-12-16T07:29:09.555Z,99980.47
2022-12-16T07:34:24.477Z,99995.13
2022-12-16T07:39:41.208Z,100008.06
2022-12-16T07:44:56.428Z,100021.84
2022-12-16T07:50:11.647Z,100037.19
2022-12-16T07:55:27.018Z,100040.56
2022-12-16T08:00:42.091Z,100056.94
2022-12-16T08:05:56.891Z,100068.06
2022-12-16T08:11:11.715Z,100064.50
2022-12-16T08:16:26.971Z,100078.03
2022-12-16T08:21:42.105Z,100078.94
2022-12-16T08:26:57.236Z,100090.09
2022-12-16T08:32:12.763Z,100093.34
2022-12-16T08:37:27.877Z,100103.41
2022-12-16T08:42:42.877Z,100100.59
2022-12-16T08:47:58.032Z,100109.00
2022-12-16T08:53:13.250Z,100125.19
2022-12-16T08:58:28.453Z,100117.19
2022-12-16T09:03:43.935Z,100128.06
2022-12-16T09:09:12.745Z,100122.53
2022-12-16T09:14:27.470Z,100125.50
2022-12-16T09:19:42.358Z,100130.13
2022-12-16T09:24:57.644Z,100127.94
2022-12-16T09:30:12.677Z,100131.75
2022-12-16T09:35:27.919Z,100139.16
2022-12-16T09:40:43.172Z,100143.09
2022-12-16T09:46:07.412Z,100147.03
2022-12-16T09:51:24.767Z,100155.13
2022-12-16T09:56:51.663Z,100164.38
2022-12-16T10:02:20.757Z,100164.75
2022-12-16T10:07:38.637Z,100169.53
2022-12-16T10:13:07.322Z,100163.97
2022-12-16T10:18:32.187Z,100174.03
2022-12-16T10:23:57.470Z,100173.56
2022-12-16T10:29:30.508Z,100173.94
2022-12-16T10:34:53.279Z,100178.63
2022-12-16T10:40:14.437Z,100183.81
2022-12-16T10:45:44.149Z,100190.00
2022-12-16T10:50:59.324Z,100190.09
2022-12-16T10:56:56.214Z,100187.91
2022-12-16T11:02:22.128Z,100187.28
2022-12-16T11:07:57.396Z,100190.63
2022-12-16T11:13:12.173Z,100193.72
2022-12-16T11:18:33.187Z,100189.63
2022-12-16T11:24:08.325Z,100189.09
2022-12-16T11:29:36.174Z,100192.94
2022-12-16T11:34:53.066Z,100199.28
2022-12-16T11:40:07.954Z,100199.53
2022-12-16T11:45:31.070Z,100189.41
2022-12-16T11:50:51.165Z,100193.41
2022-12-16T11:56:15.964Z,100196.34
2022-12-16T12:01:45.038Z,100202.72
2022-12-16T12:07:18.208Z,100208.50
2022-12-16T12:12:52.445Z,100205.31
2022-12-16T12:18:20.468Z,100214.22
2022-12-16T12:23:46.504Z,100211.34
2022-12-16T12:29:22.523Z,100218.88
2022-12-16T12:35:14.912Z,100229.78
2022-12-16T12:40:45.154Z,100228.72
2022-12-16T12:46:20.865Z,100220.59
2022-12-16T12:51:52.881Z,100230.34
2022-12-16T12:57:11.112Z,100236.53
2022-12-16T13:02:33.670Z,100228.81
2022-12-16T13:07:51.307Z,100242.63
2022-12-16T13:13:36.433Z,100238.75
2022-12-16T13:18:52.026Z,100250.94
2022-12-16T13:24:07.064Z,100247.03
2022-12-16T13:29:38.869Z,100256.78
2022-12-16T13:34:53.967Z,100260.53
2022-12-16T13:40:35.496Z,100255.91
2022-12-16T13:46:31.950Z,100269.84
2022-12-16T13:51:56.089Z,100275.16
2022-12-16T13:57:27.698Z,100289.34
2022-12-16T14:02:57.689Z,100287.88
2022-12-16T14:08:13.051Z,100280.44
2022-12-16T14:13:56.030Z,100293.34
2022-12-16T14:19:31.237Z,100302.34
2022-12-16T14:24:46.519Z,100315.56
2022-12-16T14:30:02.638Z,100331.84
2022-12-16T14:35:20.809Z,100344.47
2022-12-16T14:40:46.296Z,100345.22
2022-12-16T14:46:09.426Z,100349.69
2022-12-16T14:51:48.232Z,100353.19
2022-12-16T14:57:03.652Z,100366.69
2022-12-16T15:02:31.554Z,100363.31
2022-12-16T15:07:54.109Z,100381.56
2022-12-16T15:13:25.222Z,100380.06
2022-12-16T15:18:45.637Z,100386.25
2022-12-16T15:24:03.312Z,100401.34
2022-12-16T15:29:18.343Z,100411.41
2022-12-16T15:34:43.765Z,100411.72
2022-12-16T15:40:00.638Z,100423.25
2022-12-16T15:45:15.833Z,100433.94
2022-12-16T15:50:33.435Z,100431.44
2022-12-16T15:56:04.504Z,100440.38
2022-12-16T16:01:20.078Z,100444.22
2022-12-16T16:06:43.929Z,100444.41
2022-12-16T16:11:59.889Z,100455.66
2022-12-16T16:17:15.054Z,100469.88
2022-12-16T16:22:36.965Z,100468.63
2022-12-16T16:27:52.099Z,100479.16
2022-12-16T16:33:07.222Z,100475.59
2022-12-16T16:38:22.110Z,100482.00
2022-12-16T16:43:37.425Z,100479.81
2022-12-16T16:48:52.533Z,100497.66
2022-12-16T16:54:07.767Z,100492.66
2022-12-16T16:59:23.450Z,100504.09
2022-12-16T17:04:39.092Z,100504.03
2022-12-16T17:09:53.937Z,100497.03
2022-12-16T17:15:11.206Z,100509.28
2022-12-16T17:20:27.536Z,100505.75
2022-12-16T17:25:42.514Z,100516.19
2022-12-16T17:30:57.997Z,100524.44
2022-12-16T17:36:13.280Z,100530.59
2022-12-16T17:41:28.304Z,100543.69
2022-12-16T17:46:43.440Z,100553.03
2022-12-16T17:51:58.903Z,100568.78
2022-12-16T17:57:14.169Z,100564.78
2022-12-16T18:02:31.348Z,100564.88
2022-12-16T18:07:46.385Z,100577.94
2022-12-16T18:13:01.206Z,100582.34
2022-12-16T18:18:16.336Z,100589.19
2022-12-16T18:23:32.134Z,100592.59
2022-12-16T18:28:47.229Z,100597.19
2022-12-16T18:34:02.110Z,100605.88
2022-12-16T18:39:16.871Z,100608.44
2022-12-16T18:44:32.365Z,100618.78
2022-12-16T18:49:47.567Z,100618.88
2022-12-16T18:55:04.299Z,100631.16
2022-12-16T19:00:19.062Z,100633.78
2022-12-16T19:05:34.735Z,100630.25
2022-12-16T19:10:49.822Z,100629.41
2022-12-16T19:16:14.857Z,100631.13
2022-12-16T19:21:29.762Z,100633.81
2022-12-16T19:26:45.221Z,100646.00
2022-12-16T19:32:00.400Z,100656.50
2022-12-16T19:37:15.427Z,100659.03
2022-12-16T19:42:30.990Z,100669.44
2022-12-16T19:47:45.786Z,100668.63
2022-12-16T19:53:00.854Z,100677.22
2022-12-16T19:58:15.858Z,100684.16
2022-12-16T20:03:35.244Z,100682.44
2022-12-16T20:08:50.421Z,100690.16
2022-12-16T20:14:06.844Z,100694.47
2022-12-16T20:19:21.732Z,100695.41
2022-12-16T20:24:36.774Z,100705.69
2022-12-16T20:29:51.681Z,100702.31
2022-12-16T20:35:06.536Z,100705.75
2022-12-16T20:40:22.785Z,100707.47
2022-12-16T20:45:38.028Z,100718.66
2022-12-16T20:50:53.535Z,100726.41
2022-12-16T20:56:10.942Z,100730.72
2022-12-16T21:01:26.213Z,100749.72
2022-12-16T21:06:41.510Z,100760.91
2022-12-16T21:11:56.727Z,100760.91
2022-12-16T21:17:11.721Z,100769.53
2022-12-16T21:22:26.758Z,100771.28
2022-12-16T21:27:41.631Z,100780.75
2022-12-16T21:32:56.756Z,100785.94
2022-12-16T21:38:12.642Z,100786.78
2022-12-16T21:43:27.874Z,100796.25
2022-12-16T21:48:42.836Z,100807.44
2022-12-16T21:53:58.645Z,100807.47
2022-12-16T21:59:16.068Z,100811.75
2022-12-16T22:04:31.221Z,100824.63
2022-12-16T22:09:46.137Z,100827.25
2022-12-16T22:15:01.220Z,100828.09
2022-12-16T22:20:16.067Z,100825.50
2022-12-16T22:25:30.933Z,100834.13
2022-12-16T22:30:45.808Z,100833.25
2022-12-16T22:36:01.041Z,100837.41
2022-12-16T22:41:17.003Z,100838.25
2022-12-16T22:46:31.982Z,100849.50
2022-12-16T22:51:46.952Z,100847.78
2022-12-16T22:57:02.725Z,100867.69
2022-12-16T23:02:17.853Z,100869.38
2022-12-16T23:07:32.979Z,100875.44
2022-12-16T23:12:48.267Z,100878.88
2022-12-16T23:18:03.545Z,100890.94
2022-12-16T23:23:18.417Z,100890.94
2022-12-16T23:28:33.175Z,100897.69
2022-12-16T23:33:47.908Z,100896.69
2022-12-16T23:39:02.736Z,100894.13
2022-12-16T23:44:17.707Z,100885.66
2022-12-16T23:49:33.326Z,100889.03
2022-12-16T23:55:04.927Z,100885.38
